.
WxDataArchive / Data Records for 2008-06-21
2008-06-20 June 2008 2008-06-22

Data Records for Saturday, 21 June 2008

Time	Temp	Chill	HIndex	Humid	Dewpt	 Wind 	HiWind	WindDir	Rain 	Barom 
-----	----	-----	------	-----	-----	------	------	-------	-----	----- 
00:00	64.0	64.0	64.0	76	56.3	0	0	---	0.00	29.933 
00:05	64.2	64.2	64.2	76	56.5	0	0	---	0.00	29.933 
00:10	64.3	64.3	64.3	76	56.6	0	0	---	0.00	29.932 
00:15	64.5	64.5	64.5	76	56.8	0	0	---	0.00	29.931 
00:20	64.8	64.8	64.8	75	56.7	0	0	---	0.00	29.929 
00:25	65.0	65.0	65.0	74	56.5	0	0	---	0.00	29.931 
00:30	65.2	65.2	65.2	74	56.7	0	0	---	0.00	29.932 
00:35	65.3	65.3	65.3	74	56.8	0	0	---	0.00	29.931 
00:40	65.3	65.3	65.3	74	56.8	0	0	---	0.00	29.933 
00:45	65.3	65.3	65.3	74	56.8	0	0	---	0.00	29.931 
00:50	65.2	65.2	65.2	72	55.9	0	0	---	0.00	29.932 
00:55	65.2	65.2	65.2	71	55.6	0	0	---	0.00	29.932 
01:00	65.3	65.3	65.3	69	54.9	0	0	---	0.00	29.933 
01:05	65.5	65.5	65.5	69	55.1	0	0	---	0.00	29.934 
01:10	65.5	65.5	65.5	69	55.1	0	0	---	0.00	29.934 
01:15	65.5	65.5	65.5	68	54.7	0	0	---	0.00	29.934 
01:20	65.8	65.8	65.8	66	54.1	0	1	292	0.00	29.935 
01:25	66.0	66.0	66.0	65	53.9	0	1	292	0.00	29.934 
01:30	66.3	66.3	66.3	65	54.2	0	1	292	0.00	29.934 
01:35	66.3	66.3	66.3	65	54.2	0	1	292	0.00	29.934 
01:40	66.4	66.4	66.4	64	53.8	0	1	292	0.00	29.933 
01:45	66.6	66.6	66.6	64	54.0	0	1	292	0.00	29.930 
01:50	66.6	66.6	66.6	64	54.0	0	0	---	0.00	29.926 
01:55	66.4	66.4	66.4	65	54.3	0	0	---	0.00	29.925 
02:00	66.3	66.3	66.3	65	54.2	0	0	---	0.00	29.922 
02:05	66.0	66.0	66.0	66	54.3	0	1	292	0.00	29.920 
02:10	66.0	66.0	66.0	66	54.3	0	1	292	0.00	29.921 
02:15	65.6	65.6	65.6	67	54.3	0	1	292	0.00	29.921 
02:20	65.6	65.6	65.6	67	54.3	0	0	---	0.00	29.921 
02:25	65.6	65.6	65.6	67	54.3	0	1	292	0.00	29.923 
02:30	65.8	65.8	65.8	67	54.5	0	1	292	0.00	29.921 
02:35	66.0	66.0	66.0	67	54.7	0	1	292	0.00	29.921 
02:40	66.3	66.3	66.3	66	54.6	0	1	292	0.00	29.921 
02:45	66.3	66.3	66.3	66	54.6	0	1	292	0.00	29.922 
02:50	66.1	66.1	66.1	67	54.8	0	0	---	0.00	29.921 
02:55	66.0	66.0	66.0	67	54.7	0	0	---	0.00	29.920 
03:00	65.8	65.8	65.8	68	54.9	0	0	---	0.00	29.920 
03:05	65.6	65.6	65.6	68	54.7	0	0	---	0.00	29.920 
03:10	65.3	65.3	65.3	69	54.9	0	0	---	0.00	29.921 
03:15	65.2	65.2	65.2	70	55.2	0	0	---	0.00	29.929 
03:20	65.2	65.2	65.2	70	55.2	0	0	---	0.00	29.925 
03:25	65.0	65.0	65.0	71	55.4	0	0	---	0.00	29.928 
03:30	64.8	64.8	64.8	71	55.2	0	0	---	0.00	29.926 
03:35	64.8	64.8	64.8	72	55.6	0	0	---	0.00	29.928 
03:40	65.0	65.0	65.0	73	56.1	0	1	292	0.00	29.928 
03:45	65.0	65.0	65.0	73	56.1	0	0	---	0.00	29.924 
03:50	65.2	65.2	65.2	73	56.3	0	0	---	0.00	29.926 
03:55	65.2	65.2	65.2	72	55.9	0	0	---	0.00	29.927 
04:00	65.2	65.2	65.2	73	56.3	0	0	---	0.00	29.930 
04:05	65.2	65.2	65.2	73	56.3	0	0	---	0.00	29.926 
04:10	65.0	65.0	65.0	73	56.1	0	0	---	0.00	29.926 
04:15	65.0	65.0	65.0	73	56.1	0	0	---	0.00	29.926 
04:20	64.8	64.8	64.8	74	56.3	0	0	---	0.00	29.926 
04:25	64.7	64.7	64.7	74	56.2	0	0	---	0.00	29.926 
04:30	64.5	64.5	64.5	74	56.0	0	0	---	0.00	29.925 
04:35	64.3	64.3	64.3	76	56.6	0	0	---	0.00	29.929 
04:40	64.2	64.2	64.2	77	56.8	0	0	---	0.00	29.931 
04:45	63.9	63.9	63.9	77	56.5	0	0	---	0.00	29.934 
04:50	63.7	63.7	63.7	78	56.7	0	0	---	0.00	29.935 
04:55	63.5	63.5	63.5	77	56.2	0	0	---	0.00	29.934 
05:00	63.5	63.5	63.5	78	56.5	0	0	---	0.00	29.932 
05:05	63.5	63.5	63.5	78	56.5	0	0	---	0.00	29.935 
05:10	63.4	63.4	63.4	78	56.4	0	0	---	0.00	29.939 
05:15	63.2	63.2	63.2	79	56.6	0	0	---	0.00	29.948 
05:20	63.2	63.2	63.2	80	56.9	0	0	---	0.00	29.950 
05:25	63.1	63.1	63.1	81	57.2	0	0	---	0.00	29.945 
05:30	63.1	63.1	63.1	81	57.2	0	0	---	0.00	29.944 
05:35	63.5	63.5	63.5	81	57.6	0	4	270	0.00	29.941 
05:40	64.2	64.2	64.2	80	57.9	0	2	248	0.00	29.938 
05:45	64.5	64.5	64.5	79	57.8	0	0	---	0.00	29.931 
05:50	64.7	64.7	64.7	80	58.4	0	1	248	0.00	29.924 
05:55	64.7	64.7	64.7	81	58.7	0	0	---	0.00	29.922 
06:00	64.7	64.7	64.7	81	58.7	0	0	---	0.00	29.920 
06:05	64.7	64.7	64.7	82	59.1	0	0	---	0.00	29.920 
06:10	64.3	64.3	64.3	84	59.4	0	2	248	0.00	29.936 
06:15	64.0	64.0	64.0	85	59.4	0	2	248	0.00	29.938 
06:20	63.9	63.9	63.9	85	59.3	0	1	248	0.00	29.937 
06:25	63.9	63.9	63.9	86	59.6	0	1	248	0.00	29.937 
06:30	63.9	63.9	63.9	86	59.6	0	0	---	0.00	29.938 
06:35	64.0	64.0	64.0	87	60.0	0	1	248	0.00	29.937 
06:40	64.0	64.0	64.0	87	60.0	0	0	---	0.00	29.937 
06:45	64.3	64.3	64.3	87	60.3	0	1	248	0.00	29.937 
06:50	64.7	64.7	64.7	87	60.7	0	1	248	0.00	29.935 
06:55	65.5	65.5	65.5	86	61.2	0	2	248	0.00	29.935 
07:00	66.0	66.0	66.0	84	61.0	0	2	248	0.00	29.934 
07:05	66.8	66.8	66.8	83	61.5	1	4	248	0.00	29.938 
07:10	67.3	67.3	67.3	81	61.3	0	2	248	0.00	29.937 
07:15	67.8	67.8	67.8	80	61.4	1	3	248	0.00	29.938 
07:20	67.8	67.8	67.8	79	61.0	0	2	248	0.00	29.939 
07:25	67.9	67.9	67.9	79	61.1	1	2	248	0.00	29.938 
07:30	68.3	68.3	68.3	79	61.5	1	2	248	0.00	29.937 
07:35	68.6	68.6	68.6	79	61.8	1	3	270	0.00	29.938 
07:40	68.9	68.9	68.9	78	61.7	1	3	270	0.00	29.936 
07:45	69.3	69.3	69.3	78	62.1	1	4	248	0.00	29.938 
07:50	69.6	69.6	69.6	77	62.1	1	5	248	0.00	29.936 
07:55	69.8	69.8	69.8	77	62.3	1	4	248	0.00	29.939 
08:00	69.9	69.9	69.9	77	62.3	1	4	248	0.00	29.938 
08:05	70.3	70.3	70.3	77	62.7	1	3	248	0.00	29.945 
08:10	70.8	70.8	70.8	76	62.8	1	3	248	0.00	29.946 
08:15	71.3	71.3	71.3	75	63.0	1	3	248	0.00	29.947 
08:20	71.6	71.6	71.6	74	62.9	1	4	248	0.00	29.943 
08:25	72.3	72.3	72.3	74	63.5	0	2	248	0.00	29.941 
08:30	73.0	73.0	73.0	72	63.4	1	3	248	0.00	29.938 
08:35	73.2	73.2	73.2	70	62.8	1	4	315	0.00	29.938 
08:40	72.8	72.8	72.8	69	62.0	2	5	270	0.00	29.938 
08:45	72.5	72.5	72.5	70	62.1	1	4	270	0.00	29.937 
08:50	72.3	72.3	72.3	71	62.4	1	2	270	0.00	29.938 
08:55	72.3	72.3	72.3	71	62.4	1	2	225	0.00	29.938 
09:00	72.1	72.1	72.1	72	62.6	1	3	270	0.00	29.938 
09:05	72.3	72.3	72.3	73	63.1	1	2	270	0.00	29.939 
09:10	73.0	73.0	73.0	71	63.0	1	5	248	0.00	29.940 
09:15	73.2	73.2	73.2	69	62.4	1	3	248	0.00	29.939 
09:20	73.2	73.2	73.2	71	63.2	1	3	292	0.00	29.938 
09:25	73.2	73.2	73.2	71	63.2	1	3	292	0.00	29.935 
09:30	73.5	73.5	73.5	70	63.1	0	3	270	0.00	29.933 
09:35	74.2	74.2	74.2	69	63.4	1	5	270	0.00	29.930 
09:40	74.9	74.9	74.9	68	63.6	1	6	270	0.00	29.929 
09:45	75.4	75.4	77.3	67	63.7	1	4	248	0.00	29.926 
09:50	76.1	76.1	77.9	66	63.9	1	4	248	0.00	29.922 
09:55	76.1	76.1	78.0	64	63.0	2	7	248	0.00	29.923 
10:00	76.1	76.1	78.0	65	63.5	2	6	248	0.00	29.921 
10:05	76.5	76.5	78.3	63	62.9	2	4	248	0.00	29.923 
10:10	76.8	76.8	78.6	64	63.7	1	4	248	0.00	29.923 
10:15	77.6	77.6	79.4	63	64.0	1	4	248	0.00	29.923 
10:20	77.9	77.9	79.6	62	63.8	2	5	270	0.00	29.922 
10:25	78.1	78.1	79.8	60	63.1	2	4	270	0.00	29.922 
10:30	77.7	77.7	79.4	61	63.2	1	4	248	0.00	29.922 
10:35	77.6	77.6	79.4	62	63.5	1	3	248	0.00	29.924 
10:40	78.1	78.1	79.8	60	63.1	1	3	270	0.00	29.921 
10:45	78.5	78.5	80.1	59	63.0	1	4	270	0.00	29.922 
10:50	79.0	79.0	80.7	60	63.9	1	2	248	0.00	29.921 
10:55	79.6	79.6	81.1	57	63.0	1	4	248	0.00	29.919 
11:00	80.1	80.1	81.8	59	64.5	1	4	248	0.00	29.916 
11:05	80.7	80.7	81.9	54	62.5	2	5	248	0.00	29.912 
11:10	80.3	80.3	81.5	54	62.1	1	3	270	0.00	29.906 
11:15	79.4	79.4	80.7	55	61.8	1	3	248	0.00	29.903 
11:20	78.5	78.5	79.9	55	61.0	1	3	270	0.00	29.907 
11:25	77.7	77.7	79.3	57	61.2	1	4	270	0.00	29.907 
11:30	77.4	77.4	79.1	58	61.4	1	3	270	0.00	29.894 
11:35	76.8	76.8	78.6	59	61.4	0	2	248	0.00	29.890 
11:40	76.7	76.7	78.5	61	62.2	0	2	248	0.00	29.889 
11:45	76.3	76.3	78.2	62	62.3	1	3	270	0.00	29.905 
11:50	75.4	75.4	77.3	66	63.2	2	4	270	0.00	29.905 
11:55	74.2	74.2	74.2	70	63.8	1	3	270	0.00	29.910 
12:00	73.2	73.2	73.2	74	64.4	0	2	270	0.00	29.911 
12:05	71.8	71.8	71.8	77	64.2	0	2	270	0.02	29.910 
12:10	70.1	70.1	70.1	79	63.3	1	3	270	0.02	29.924 
12:15	68.1	68.1	68.1	78	61.0	1	5	270	0.02	29.924 
12:20	66.3	66.3	66.3	80	59.9	1	4	270	0.03	29.921 
12:25	64.7	64.7	64.7	82	59.1	0	1	270	0.01	29.925 
12:30	64.2	64.2	64.2	85	59.6	0	1	270	0.01	29.927 
12:35	63.5	63.5	63.5	86	59.2	0	1	270	0.00	29.931 
12:40	63.4	63.4	63.4	88	59.8	0	0	---	0.00	29.931 
12:45	63.2	63.2	63.2	89	59.9	0	0	---	0.00	29.918 
12:50	63.1	63.1	63.1	89	59.8	0	1	270	0.01	29.920 
12:55	62.9	62.9	62.9	88	59.3	0	1	270	0.00	29.918 
13:00	62.7	62.7	62.7	89	59.4	0	1	270	0.00	29.911 
13:05	62.7	62.7	62.7	89	59.4	1	4	270	0.00	29.917 
13:10	62.9	62.9	62.9	90	59.9	2	5	270	0.00	29.925 
13:15	62.7	62.7	62.7	89	59.4	3	6	270	0.01	29.928 
13:20	62.3	62.3	62.3	90	59.3	3	5	270	0.00	29.943 
13:25	62.0	62.0	62.0	90	59.0	2	4	270	0.01	29.949 
13:30	61.6	61.6	61.6	91	58.9	1	4	270	0.01	29.952 
13:35	61.3	61.3	61.3	91	58.6	1	3	292	0.01	29.954 
13:40	61.2	61.2	61.2	92	58.9	1	4	315	0.01	29.950 
13:45	61.2	61.2	61.2	92	58.9	2	4	315	0.01	29.949 
13:50	61.5	61.5	61.5	92	59.2	2	5	315	0.03	29.951 
13:55	61.8	61.8	61.8	93	59.8	3	7	292	0.03	29.950 
14:00	62.0	62.0	62.0	93	59.9	3	6	292	0.02	29.952 
14:05	62.1	62.1	62.1	93	60.0	2	7	292	0.01	29.948 
14:10	62.1	62.1	62.1	93	60.0	2	4	292	0.00	29.952 
14:15	62.1	62.1	62.1	94	60.3	2	5	270	0.01	29.962 
14:20	62.0	62.0	62.0	94	60.2	2	5	315	0.02	29.963 
14:25	61.8	61.8	61.8	94	60.1	2	7	292	0.03	29.963 
14:30	61.3	61.3	61.3	94	59.6	2	5	292	0.02	29.958 
14:35	61.2	61.2	61.2	94	59.5	2	4	292	0.02	29.948 
14:40	61.0	61.0	61.0	93	59.0	3	9	292	0.00	29.941 
14:45	61.0	61.0	61.0	93	59.0	3	9	292	0.01	29.940 
14:50	61.2	61.2	61.2	93	59.2	2	5	315	0.00	29.934 
14:55	61.8	61.8	61.8	93	59.8	1	5	292	0.00	29.917 
15:00	62.3	62.3	62.3	93	60.2	2	5	315	0.00	29.912 
15:05	62.9	62.9	62.9	92	60.5	0	3	0	0.00	29.913 
15:10	63.9	63.9	63.9	92	61.5	1	4	45	0.00	29.898 
15:15	64.3	64.3	64.3	91	61.6	0	4	45	0.00	29.898 
15:20	65.0	65.0	65.0	87	61.0	1	4	202	0.00	29.894 
15:25	65.3	65.3	65.3	83	60.0	1	4	112	0.00	29.899 
15:30	65.6	65.6	65.6	82	59.9	0	1	112	0.00	29.910 
15:35	66.1	66.1	66.1	83	60.8	0	1	112	0.00	29.915 
15:40	66.8	66.8	66.8	80	60.4	0	1	112	0.00	29.914 
15:45	67.6	67.6	67.6	77	60.1	0	2	112	0.00	29.916 
15:50	68.4	68.4	68.4	75	60.2	0	1	112	0.00	29.916 
15:55	69.1	69.1	69.1	70	58.9	0	1	112	0.00	29.914 
16:00	69.9	69.9	69.9	72	60.4	0	2	112	0.00	29.915 
16:05	70.6	70.6	70.6	72	61.1	0	2	112	0.00	29.917 
16:10	71.3	71.3	71.3	67	59.8	1	2	112	0.00	29.913 
16:15	71.8	71.8	71.8	64	59.0	1	3	112	0.00	29.912 
16:20	72.1	72.1	72.1	64	59.2	1	3	112	0.00	29.912 
16:25	72.8	72.8	72.8	65	60.3	0	2	112	0.00	29.909 
16:30	73.2	73.2	73.2	61	58.9	0	2	225	0.00	29.904 
16:35	73.3	73.3	73.3	60	58.6	0	2	225	0.00	29.901 
16:40	73.5	73.5	73.5	59	58.3	0	2	248	0.00	29.898 
16:45	73.7	73.7	73.7	57	57.5	0	3	248	0.00	29.897 
16:50	73.7	73.7	73.7	58	58.0	1	4	248	0.00	29.895 
16:55	73.7	73.7	73.7	56	57.0	1	3	248	0.00	29.894 
17:00	73.9	73.9	73.9	56	57.2	0	2	270	0.00	29.893 
17:05	73.9	73.9	73.9	57	57.7	1	3	270	0.00	29.893 
17:10	73.9	73.9	73.9	57	57.7	0	2	270	0.00	29.894 
17:15	73.7	73.7	73.7	57	57.5	1	6	270	0.00	29.893 
17:20	73.7	73.7	73.7	58	58.0	0	2	158	0.00	29.893 
17:25	73.7	73.7	73.7	58	58.0	1	3	270	0.00	29.892 
17:30	73.7	73.7	73.7	56	57.0	0	3	292	0.00	29.890 
17:35	73.9	73.9	73.9	57	57.7	1	2	292	0.00	29.889 
17:40	73.5	73.5	73.5	58	57.8	1	4	270	0.00	29.892 
17:45	73.2	73.2	73.2	58	57.5	1	4	112	0.00	29.890 
17:50	73.0	73.0	73.0	60	58.3	0	2	112	0.00	29.892 
17:55	73.0	73.0	73.0	57	56.9	1	3	270	0.00	29.890 
18:00	73.0	73.0	73.0	58	57.3	0	2	292	0.00	29.888 
18:05	73.0	73.0	73.0	57	56.9	1	3	270	0.00	29.889 
18:10	73.0	73.0	73.0	57	56.9	1	4	248	0.00	29.889 
18:15	72.8	72.8	72.8	57	56.7	1	3	248	0.00	29.887 
18:20	72.8	72.8	72.8	58	57.1	1	3	270	0.00	29.884 
18:25	72.8	72.8	72.8	58	57.1	1	4	248	0.00	29.886 
18:30	73.0	73.0	73.0	59	57.8	0	2	0	0.00	29.882 
18:35	73.0	73.0	73.0	57	56.9	1	3	248	0.00	29.878 
18:40	73.2	73.2	73.2	56	56.5	0	2	248	0.00	29.877 
18:45	73.2	73.2	73.2	56	56.5	1	2	338	0.00	29.878 
18:50	73.2	73.2	73.2	57	57.0	0	1	315	0.00	29.876 
18:55	73.0	73.0	73.0	57	56.9	0	2	315	0.00	29.876 
19:00	73.2	73.2	73.2	57	57.0	0	1	315	0.00	29.876 
19:05	73.2	73.2	73.2	57	57.0	1	3	315	0.00	29.870 
19:10	73.0	73.0	73.0	59	57.8	0	1	292	0.00	29.867 
19:15	72.7	72.7	72.7	59	57.5	0	1	292	0.00	29.860 
19:20	72.3	72.3	72.3	60	57.6	0	1	292	0.00	29.859 
19:25	72.1	72.1	72.1	61	57.9	0	0	---	0.00	29.859 
19:30	71.6	71.6	71.6	62	57.9	0	0	---	0.00	29.859 
19:35	71.1	71.1	71.1	62	57.4	0	0	---	0.00	29.860 
19:40	70.8	70.8	70.8	63	57.6	0	1	292	0.00	29.861 
19:45	70.4	70.4	70.4	63	57.2	0	0	---	0.00	29.861 
19:50	69.9	69.9	69.9	64	57.2	0	0	---	0.00	29.861 
19:55	69.6	69.6	69.6	65	57.3	0	0	---	0.00	29.864 
20:00	69.1	69.1	69.1	65	56.8	0	0	---	0.00	29.871 
20:05	68.8	68.8	68.8	66	57.0	0	0	---	0.00	29.874 
20:10	68.4	68.4	68.4	66	56.6	0	0	---	0.00	29.875 
20:15	68.1	68.1	68.1	68	57.1	0	0	---	0.00	29.875 
20:20	67.8	67.8	67.8	68	56.8	0	0	---	0.00	29.877 
20:25	67.4	67.4	67.4	69	56.9	0	0	---	0.00	29.882 
20:30	67.1	67.1	67.1	70	57.0	0	0	---	0.00	29.887 
20:35	66.8	66.8	66.8	72	57.5	0	0	---	0.00	29.886 
20:40	66.4	66.4	66.4	73	57.5	0	0	---	0.00	29.885 
20:45	66.3	66.3	66.3	73	57.4	0	0	---	0.00	29.886 
20:50	66.0	66.0	66.0	73	57.1	0	0	---	0.00	29.889 
20:55	65.8	65.8	65.8	75	57.6	0	0	---	0.00	29.891 
21:00	65.8	65.8	65.8	75	57.6	0	0	---	0.00	29.892 
21:05	65.6	65.6	65.6	76	57.8	0	0	---	0.00	29.889 
21:10	65.6	65.6	65.6	77	58.2	0	0	---	0.00	29.889 
21:15	65.5	65.5	65.5	77	58.1	0	0	---	0.00	29.887 
21:20	65.5	65.5	65.5	78	58.5	0	0	---	0.00	29.886 
21:25	65.3	65.3	65.3	78	58.3	0	0	---	0.00	29.888 
21:30	65.2	65.2	65.2	79	58.5	0	0	---	0.00	29.887 
21:35	65.0	65.0	65.0	79	58.3	0	0	---	0.00	29.888 
21:40	64.8	64.8	64.8	80	58.5	0	0	---	0.00	29.887 
21:45	64.7	64.7	64.7	81	58.7	0	0	---	0.00	29.885 
21:50	64.5	64.5	64.5	81	58.5	0	0	---	0.00	29.884 
21:55	64.3	64.3	64.3	82	58.7	0	0	---	0.00	29.888 
22:00	64.2	64.2	64.2	83	58.9	0	0	---	0.00	29.890 
22:05	64.0	64.0	64.0	83	58.7	0	0	---	0.00	29.887 
22:10	63.9	63.9	63.9	84	59.0	0	0	---	0.00	29.887 
22:15	63.9	63.9	63.9	85	59.3	0	0	---	0.00	29.887 
22:20	63.7	63.7	63.7	85	59.1	0	0	---	0.00	29.885 
22:25	63.7	63.7	63.7	85	59.1	0	0	---	0.00	29.884 
22:30	63.5	63.5	63.5	86	59.2	0	0	---	0.00	29.880 
22:35	63.5	63.5	63.5	86	59.2	0	0	---	0.00	29.880 
22:40	63.4	63.4	63.4	86	59.1	0	0	---	0.00	29.884 
22:45	63.2	63.2	63.2	86	58.9	0	0	---	0.00	29.885 
22:50	63.1	63.1	63.1	86	58.8	0	0	---	0.00	29.887 
22:55	62.9	62.9	62.9	87	59.0	0	0	---	0.00	29.882 
23:00	62.7	62.7	62.7	87	58.8	0	0	---	0.00	29.878 
23:05	62.4	62.4	62.4	87	58.5	0	0	---	0.00	29.880 
23:10	62.3	62.3	62.3	87	58.4	0	0	---	0.00	29.881 
23:15	62.0	62.0	62.0	88	58.4	0	0	---	0.00	29.880 
23:20	61.6	61.6	61.6	88	58.0	0	0	---	0.00	29.879 
23:25	61.5	61.5	61.5	89	58.2	0	0	---	0.00	29.879 
23:30	61.2	61.2	61.2	89	57.9	0	0	---	0.00	29.878 
23:35	60.9	60.9	60.9	89	57.6	0	0	---	0.00	29.874 
23:40	60.7	60.7	60.7	90	57.7	0	0	---	0.00	29.874 
23:45	60.4	60.4	60.4	90	57.4	0	0	---	0.00	29.875 
23:50	60.2	60.2	60.2	91	57.6	0	0	---	0.00	29.876 
23:55	60.1	60.1	60.1	91	57.5	0	0	---	0.00	29.875 

CoCoRaHS
IN-AL-39
A2 Web Hosting
Creative Commons License
GoDaddy
Look for:

loaded 2017-12-13 02:39:50 • last modified 2010-11-18 10:43:29
Privacy PolicyDisclaimer
• wx.awcolley.com is powered by PmWiki v.2002016 •
• all content (unless otherwise noted) © 2017 A W Colley